Terminal Aerodrome Forecast
Issued by NWS

Home | Current Version | Previous Version | Graphics & Text | Print | Product List | Glossary On
Versions: 1 2 3 4 5 6 7 8 9 10 11 12 13 14 15 16 17 18 19 20 21 22 23 24 25
053
FTUS43 KGRB 300308 AAA
TAFMTW
TAF AMD
KMTW 300308Z 3003/3024 06010KT P6SM SCT040 BKN070
      TEMPO 3004/3007 -RA BKN040
     FM300800 04008KT 4SM -RASN OVC030
      TEMPO 3009/3013 2SM -RASN BKN018
     FM301300 05012G19KT 3SM -RASN BKN010
     FM301600 06014G22KT 2SM -RA OVC005=

USA.gov is the U.S. government's official web portal to all federal, state and local government web resources and services.